Flight Track Log - Related Links

Times and Time Zones

All times are in EDT time to prevent confusion due to time zone crossing. See the SKW2697 flight status page for this flight to view local times or setup timezone preferences in your user account.

Time Position Orientation Groundspeed Altitude Reporting Facility
EDT Latitude Longitude Course Direction KTS MPH feet Rate Location/Type
Fri 03:50:43 PM 33.9447 -118.4522 325° Northwest 147 169 1,400  Level Los Angeles Center
Fri 03:51:45 PM 33.9347 -118.5200 260° West 206 237 3,200 2,081 Climbing Los Angeles Center
Fri 03:52:47 PM 33.9175 -118.6100 257° West 275 316 5,700 2,661 Climbing Los Angeles Center
Fri 03:53:49 PM 33.9003 -118.7108 258° West 288 331 8,700 2,064 Climbing Los Angeles Center
Fri 03:54:52 PM 33.8856 -118.8008 259° West 310 357 10,000 624 Climbing Los Angeles Center
Fri 03:55:54 PM 33.9442 -118.9039 304° West 334 384 10,000 48 Level Los Angeles Center
Fri 03:56:00 PM 33.9163 -118.8757 325° Northwest  Level FlightAware Approximate
Fri 03:56:56 PM 34.0244 -118.9714 325° Northwest 348 400 10,100  Level Los Angeles Center
Fri 03:57:58 PM 34.1078 -119.0436 324° Northwest 365 420 10,100  Level Los Angeles Center
Fri 03:59:00 PM 34.1694 -119.1475 306° West 380 437 10,100 -48 Level Los Angeles Center
Fri 04:00:02 PM 34.2411 -119.2042 327° Northwest 312 359 10,000 -513 Descending Los Angeles Center
Fri 04:00:57 PM 34.3228 -119.2094 357° North 280 322 9,100 -524 Descending Los Angeles Center
Fri 04:01:45 PM 34.3842 -119.2125 358° North 277 319 9,100 -87 Level Los Angeles Center
Fri 04:02:06 PM 34.4094 -119.2150 355° North 270 311 9,000 -90 Descending Los Angeles Center
Fri 04:02:52 PM 34.4414 -119.2747 303° West 288 331 9,000  Level Los Angeles Center
Fri 04:03:09 PM 34.4381 -119.2978 260° West 295 339 9,000  Level Los Angeles Center
Fri 04:03:53 PM 34.4072 -119.3617 240° Southwest 307 353 9,000  Level Los Angeles Center
Fri 04:04:11 PM 34.3925 -119.3833 231° Southwest 305 351 9,000  Level Los Angeles Center
Fri 04:04:53 PM 34.3525 -119.4450 232° Southwest 298 343 9,000 -97 Level Los Angeles Center
Fri 04:05:13 PM 34.3436 -119.4603 235° Southwest 300 345 8,900 -885 Descending Los Angeles Center
Fri 04:05:54 PM 34.3050 -119.5228 233° Southwest 296 341 8,100 -968 Descending Los Angeles Center
Fri 04:06:15 PM 34.2944 -119.5394 233° Southwest 293 337 7,900 -984 Descending Los Angeles Center
Fri 04:06:55 PM 34.2708 -119.6200 250° West 297 342 7,100 -1,161 Descending Los Angeles Center
Fri 04:07:17 PM 34.2608 -119.6531 250° West 298 343 6,700 -1,000 Descending Los Angeles Center
Fri 04:07:55 PM 34.2467 -119.7061 252° West 280 322 6,100 -968 Descending Los Angeles Center
Fri 04:08:19 PM 34.2542 -119.7375 286° West 274 315 5,700 -984 Descending Los Angeles Center
Fri 04:08:56 PM 34.2878 -119.7733 319° Northwest 240 276 5,100 -1,065 Descending Los Angeles Center
Fri 04:09:21 PM 34.3039 -119.7886 322° Northwest 241 277 4,600 -1,400 Descending Los Angeles Center
Fri 04:09:56 PM 34.3414 -119.8003 346° North 223 257 3,700 -1,452 Descending Los Angeles Center
Fri 04:10:23 PM 34.3653 -119.7972 North 236 272 3,100 -1,180 Descending Los Angeles Center
Fri 04:10:57 PM 34.3978 -119.7925 North 185 213 2,500 -1,258 Descending Los Angeles Center
Fri 04:11:25 PM 34.4128 -119.7900 North 207 238 1,800 -1,855 Descending Los Angeles Center
Fri 04:11:52 PM 34.4283 -119.8033 325° Northwest 155 178 800 -1,524 Descending Los Angeles Center
Fri 04:12:28 PM 34.4292 -119.8225 273° West 170 196 200 -1,000 Descending Los Angeles Center
Fri 04:14:00 PM 34.4167 -119.8333 212° Southwest  Level FlightAware Approximate

Login

Don't have an account? Register now (free) for customized features, flight alerts, and more!